sensor_id;sensor_type;location;lat;lon;timestamp;P1;durP1;ratioP1;P2;durP2;ratioP2
76063;SDS011;64762;52.006;8.424;2023-06-26T00:01:31;14.00;;;7.47;;
76063;SDS011;64762;52.006;8.424;2023-06-26T00:04:00;11.40;;;7.60;;
76063;SDS011;64762;52.006;8.424;2023-06-26T00:08:54;11.53;;;7.63;;
76063;SDS011;64762;52.006;8.424;2023-06-26T00:11:20;15.48;;;7.47;;
76063;SDS011;64762;52.006;8.424;2023-06-26T00:13:45;12.40;;;8.30;;
76063;SDS011;64762;52.006;8.424;2023-06-26T00:16:11;10.90;;;7.63;;
76063;SDS011;64762;52.006;8.424;2023-06-26T00:18:36;14.03;;;8.03;;
76063;SDS011;64762;52.006;8.424;2023-06-26T00:21:01;11.43;;;8.20;;
76063;SDS011;64762;52.006;8.424;2023-06-26T00:23:27;10.83;;;7.47;;
76063;SDS011;64762;52.006;8.424;2023-06-26T00:25:52;10.73;;;7.10;;
76063;SDS011;64762;52.006;8.424;2023-06-26T00:28:18;11.10;;;7.43;;
76063;SDS011;64762;52.006;8.424;2023-06-26T00:30:43;12.40;;;8.37;;
76063;SDS011;64762;52.006;8.424;2023-06-26T00:33:08;11.60;;;8.27;;
76063;SDS011;64762;52.006;8.424;2023-06-26T00:35:34;13.30;;;8.57;;
76063;SDS011;64762;52.006;8.424;2023-06-26T00:38:00;10.82;;;7.70;;
76063;SDS011;64762;52.006;8.424;2023-06-26T00:40:25;13.60;;;7.93;;
76063;SDS011;64762;52.006;8.424;2023-06-26T00:42:51;12.93;;;7.63;;
76063;SDS011;64762;52.006;8.424;2023-06-26T00:45:17;12.17;;;7.93;;
76063;SDS011;64762;52.006;8.424;2023-06-26T00:47:42;12.00;;;7.90;;
76063;SDS011;64762;52.006;8.424;2023-06-26T00:50:07;12.45;;;7.97;;
76063;SDS011;64762;52.006;8.424;2023-06-26T00:52:33;11.85;;;7.55;;
76063;SDS011;64762;52.006;8.424;2023-06-26T00:54:58;11.77;;;7.70;;
76063;SDS011;64762;52.006;8.424;2023-06-26T00:57:24;12.68;;;8.32;;
76063;SDS011;64762;52.006;8.424;2023-06-26T00:59:49;13.17;;;8.47;;
76063;SDS011;64762;52.006;8.424;2023-06-26T01:02:15;11.85;;;8.48;;
76063;SDS011;64762;52.006;8.424;2023-06-26T01:04:44;14.43;;;9.00;;
76063;SDS011;64762;52.006;8.424;2023-06-26T01:07:11;12.57;;;8.02;;
76063;SDS011;64762;52.006;8.424;2023-06-26T01:09:38;13.85;;;8.10;;
76063;SDS011;64762;52.006;8.424;2023-06-26T01:12:03;11.53;;;7.80;;
76063;SDS011;64762;52.006;8.424;2023-06-26T01:14:28;12.02;;;7.60;;
76063;SDS011;64762;52.006;8.424;2023-06-26T01:16:54;12.10;;;7.33;;
76063;SDS011;64762;52.006;8.424;2023-06-26T01:19:26;10.65;;;7.55;;
76063;SDS011;64762;52.006;8.424;2023-06-26T01:25:01;14.55;;;7.28;;
76063;SDS011;64762;52.006;8.424;2023-06-26T01:27:32;9.55;;;6.80;;
76063;SDS011;64762;52.006;8.424;2023-06-26T01:29:58;13.98;;;8.05;;
76063;SDS011;64762;52.006;8.424;2023-06-26T01:32:25;11.57;;;7.68;;
76063;SDS011;64762;52.006;8.424;2023-06-26T01:34:51;13.85;;;8.32;;
76063;SDS011;64762;52.006;8.424;2023-06-26T01:37:17;13.50;;;8.27;;
76063;SDS011;64762;52.006;8.424;2023-06-26T01:39:42;12.00;;;8.30;;
76063;SDS011;64762;52.006;8.424;2023-06-26T01:42:07;11.33;;;7.80;;
76063;SDS011;64762;52.006;8.424;2023-06-26T01:44:34;11.87;;;8.10;;
76063;SDS011;64762;52.006;8.424;2023-06-26T01:47:01;11.65;;;7.65;;
76063;SDS011;64762;52.006;8.424;2023-06-26T01:57:37;11.90;;;7.28;;
76063;SDS011;64762;52.006;8.424;2023-06-26T02:00:03;15.07;;;7.60;;
76063;SDS011;64762;52.006;8.424;2023-06-26T02:02:30;12.70;;;8.07;;
76063;SDS011;64762;52.006;8.424;2023-06-26T02:04:56;11.93;;;8.03;;
76063;SDS011;64762;52.006;8.424;2023-06-26T02:07:21;12.10;;;8.13;;
76063;SDS011;64762;52.006;8.424;2023-06-26T02:09:46;12.30;;;8.23;;
76063;SDS011;64762;52.006;8.424;2023-06-26T02:12:12;11.77;;;7.47;;
76063;SDS011;64762;52.006;8.424;2023-06-26T02:14:37;12.18;;;8.38;;
76063;SDS011;64762;52.006;8.424;2023-06-26T02:17:03;12.50;;;8.13;;
76063;SDS011;64762;52.006;8.424;2023-06-26T02:19:29;13.80;;;8.32;;
76063;SDS011;64762;52.006;8.424;2023-06-26T02:21:54;10.97;;;8.00;;
76063;SDS011;64762;52.006;8.424;2023-06-26T02:24:19;14.40;;;8.13;;
76063;SDS011;64762;52.006;8.424;2023-06-26T02:26:45;11.17;;;7.57;;
76063;SDS011;64762;52.006;8.424;2023-06-26T02:29:11;11.38;;;7.35;;
76063;SDS011;64762;52.006;8.424;2023-06-26T02:31:36;11.80;;;7.78;;
76063;SDS011;64762;52.006;8.424;2023-06-26T02:34:01;11.07;;;7.07;;
76063;SDS011;64762;52.006;8.424;2023-06-26T02:36:27;10.93;;;7.47;;
76063;SDS011;64762;52.006;8.424;2023-06-26T02:38:52;14.30;;;8.43;;
76063;SDS011;64762;52.006;8.424;2023-06-26T02:41:17;12.37;;;7.27;;
76063;SDS011;64762;52.006;8.424;2023-06-26T02:43:43;13.10;;;7.90;;
76063;SDS011;64762;52.006;8.424;2023-06-26T02:46:08;14.17;;;8.83;;
76063;SDS011;64762;52.006;8.424;2023-06-26T02:48:33;11.67;;;7.97;;
76063;SDS011;64762;52.006;8.424;2023-06-26T02:50:59;13.40;;;7.80;;
76063;SDS011;64762;52.006;8.424;2023-06-26T02:53:24;10.30;;;7.73;;
76063;SDS011;64762;52.006;8.424;2023-06-26T02:55:49;13.02;;;7.93;;
76063;SDS011;64762;52.006;8.424;2023-06-26T02:58:15;15.43;;;7.88;;
76063;SDS011;64762;52.006;8.424;2023-06-26T03:00:40;13.13;;;7.83;;
76063;SDS011;64762;52.006;8.424;2023-06-26T03:03:06;11.32;;;8.05;;
76063;SDS011;64762;52.006;8.424;2023-06-26T03:05:32;11.18;;;8.00;;
76063;SDS011;64762;52.006;8.424;2023-06-26T03:07:57;13.07;;;8.33;;
76063;SDS011;64762;52.006;8.424;2023-06-26T03:10:23;11.70;;;7.20;;
76063;SDS011;64762;52.006;8.424;2023-06-26T03:12:48;10.93;;;6.93;;
76063;SDS011;64762;52.006;8.424;2023-06-26T03:15:13;10.27;;;7.53;;
76063;SDS011;64762;52.006;8.424;2023-06-26T03:17:39;10.43;;;7.43;;
76063;SDS011;64762;52.006;8.424;2023-06-26T03:20:04;13.37;;;8.17;;
76063;SDS011;64762;52.006;8.424;2023-06-26T03:22:32;12.93;;;8.13;;
76063;SDS011;64762;52.006;8.424;2023-06-26T03:24:57;10.82;;;7.75;;
76063;SDS011;64762;52.006;8.424;2023-06-26T03:27:23;11.27;;;7.00;;
76063;SDS011;64762;52.006;8.424;2023-06-26T03:29:48;12.17;;;7.90;;
76063;SDS011;64762;52.006;8.424;2023-06-26T03:32:13;10.97;;;8.40;;
76063;SDS011;64762;52.006;8.424;2023-06-26T03:34:38;15.40;;;7.83;;
76063;SDS011;64762;52.006;8.424;2023-06-26T03:37:04;13.57;;;7.87;;
76063;SDS011;64762;52.006;8.424;2023-06-26T03:39:29;12.57;;;8.10;;
76063;SDS011;64762;52.006;8.424;2023-06-26T03:41:55;13.57;;;8.10;;
76063;SDS011;64762;52.006;8.424;2023-06-26T03:44:22;13.60;;;7.85;;
76063;SDS011;64762;52.006;8.424;2023-06-26T03:46:47;13.45;;;7.65;;
76063;SDS011;64762;52.006;8.424;2023-06-26T03:49:12;12.53;;;8.10;;
76063;SDS011;64762;52.006;8.424;2023-06-26T03:51:38;13.63;;;8.73;;
76063;SDS011;64762;52.006;8.424;2023-06-26T03:54:03;11.37;;;7.30;;
76063;SDS011;64762;52.006;8.424;2023-06-26T03:56:28;12.80;;;8.03;;
76063;SDS011;64762;52.006;8.424;2023-06-26T03:58:54;11.80;;;7.80;;
76063;SDS011;64762;52.006;8.424;2023-06-26T04:01:19;12.77;;;7.60;;
76063;SDS011;64762;52.006;8.424;2023-06-26T04:03:46;11.30;;;7.85;;
76063;SDS011;64762;52.006;8.424;2023-06-26T04:06:11;16.83;;;8.07;;
76063;SDS011;64762;52.006;8.424;2023-06-26T04:08:37;11.53;;;7.63;;
76063;SDS011;64762;52.006;8.424;2023-06-26T04:11:02;11.20;;;7.87;;
76063;SDS011;64762;52.006;8.424;2023-06-26T04:13:27;13.20;;;7.97;;
76063;SDS011;64762;52.006;8.424;2023-06-26T04:15:53;15.27;;;8.57;;
76063;SDS011;64762;52.006;8.424;2023-06-26T04:18:18;11.67;;;7.63;;
76063;SDS011;64762;52.006;8.424;2023-06-26T04:21:03;11.90;;;8.25;;
76063;SDS011;64762;52.006;8.424;2023-06-26T04:23:30;13.98;;;7.70;;
76063;SDS011;64762;52.006;8.424;2023-06-26T04:25:56;14.73;;;8.67;;
76063;SDS011;64762;52.006;8.424;2023-06-26T04:28:23;12.57;;;7.72;;
76063;SDS011;64762;52.006;8.424;2023-06-26T04:30:48;13.13;;;7.80;;
76063;SDS011;64762;52.006;8.424;2023-06-26T04:33:13;11.60;;;7.87;;
76063;SDS011;64762;52.006;8.424;2023-06-26T04:35:40;11.75;;;7.82;;
76063;SDS011;64762;52.006;8.424;2023-06-26T04:38:05;11.80;;;8.50;;
76063;SDS011;64762;52.006;8.424;2023-06-26T04:40:31;13.60;;;8.00;;
76063;SDS011;64762;52.006;8.424;2023-06-26T04:42:56;15.60;;;7.90;;
76063;SDS011;64762;52.006;8.424;2023-06-26T04:45:21;12.80;;;8.23;;
76063;SDS011;64762;52.006;8.424;2023-06-26T04:47:46;10.73;;;7.67;;
76063;SDS011;64762;52.006;8.424;2023-06-26T04:50:12;9.97;;;6.57;;
76063;SDS011;64762;52.006;8.424;2023-06-26T04:52:37;11.37;;;6.87;;
76063;SDS011;64762;52.006;8.424;2023-06-26T04:55:02;11.50;;;8.20;;
76063;SDS011;64762;52.006;8.424;2023-06-26T04:57:28;12.82;;;7.85;;
76063;SDS011;64762;52.006;8.424;2023-06-26T04:59:53;13.53;;;8.17;;
76063;SDS011;64762;52.006;8.424;2023-06-26T05:02:19;11.80;;;8.23;;
76063;SDS011;64762;52.006;8.424;2023-06-26T05:04:44;11.77;;;7.43;;
76063;SDS011;64762;52.006;8.424;2023-06-26T05:07:11;13.73;;;7.90;;
76063;SDS011;64762;52.006;8.424;2023-06-26T05:09:36;12.83;;;8.00;;
76063;SDS011;64762;52.006;8.424;2023-06-26T05:12:01;15.23;;;7.57;;
76063;SDS011;64762;52.006;8.424;2023-06-26T05:14:27;13.75;;;7.28;;
76063;SDS011;64762;52.006;8.424;2023-06-26T05:16:53;15.93;;;7.80;;
76063;SDS011;64762;52.006;8.424;2023-06-26T05:19:18;12.70;;;8.18;;
76063;SDS011;64762;52.006;8.424;2023-06-26T05:21:44;15.47;;;9.30;;
76063;SDS011;64762;52.006;8.424;2023-06-26T05:24:09;15.30;;;8.52;;
76063;SDS011;64762;52.006;8.424;2023-06-26T05:26:37;11.73;;;7.90;;
76063;SDS011;64762;52.006;8.424;2023-06-26T05:29:02;11.35;;;7.43;;
76063;SDS011;64762;52.006;8.424;2023-06-26T05:31:28;11.85;;;7.35;;
76063;SDS011;64762;52.006;8.424;2023-06-26T05:33:56;12.68;;;7.95;;
76063;SDS011;64762;52.006;8.424;2023-06-26T05:36:22;14.77;;;8.23;;
76063;SDS011;64762;52.006;8.424;2023-06-26T05:38:49;13.02;;;8.00;;
76063;SDS011;64762;52.006;8.424;2023-06-26T05:41:15;11.45;;;7.70;;
76063;SDS011;64762;52.006;8.424;2023-06-26T05:43:40;12.65;;;7.78;;
76063;SDS011;64762;52.006;8.424;2023-06-26T05:46:06;17.17;;;7.57;;
76063;SDS011;64762;52.006;8.424;2023-06-26T05:48:31;11.30;;;7.40;;
76063;SDS011;64762;52.006;8.424;2023-06-26T05:50:56;11.47;;;7.80;;
76063;SDS011;64762;52.006;8.424;2023-06-26T05:53:22;14.07;;;7.97;;
76063;SDS011;64762;52.006;8.424;2023-06-26T05:55:48;15.25;;;8.30;;
76063;SDS011;64762;52.006;8.424;2023-06-26T05:58:13;12.50;;;7.85;;
76063;SDS011;64762;52.006;8.424;2023-06-26T06:00:39;12.25;;;7.47;;
76063;SDS011;64762;52.006;8.424;2023-06-26T06:03:06;12.85;;;7.72;;
76063;SDS011;64762;52.006;8.424;2023-06-26T06:05:31;12.27;;;7.30;;
76063;SDS011;64762;52.006;8.424;2023-06-26T06:07:56;15.57;;;8.00;;
76063;SDS011;64762;52.006;8.424;2023-06-26T06:10:22;15.00;;;8.27;;
76063;SDS011;64762;52.006;8.424;2023-06-26T06:12:47;14.18;;;7.75;;
76063;SDS011;64762;52.006;8.424;2023-06-26T06:15:12;16.37;;;7.50;;
76063;SDS011;64762;52.006;8.424;2023-06-26T06:17:38;11.30;;;7.10;;
76063;SDS011;64762;52.006;8.424;2023-06-26T06:20:03;12.50;;;8.37;;
76063;SDS011;64762;52.006;8.424;2023-06-26T06:22:29;13.57;;;8.57;;
76063;SDS011;64762;52.006;8.424;2023-06-26T06:24:54;16.70;;;7.77;;
76063;SDS011;64762;52.006;8.424;2023-06-26T06:27:20;16.17;;;9.07;;
76063;SDS011;64762;52.006;8.424;2023-06-26T06:29:45;12.63;;;8.47;;
76063;SDS011;64762;52.006;8.424;2023-06-26T06:32:10;14.57;;;8.20;;
76063;SDS011;64762;52.006;8.424;2023-06-26T06:34:36;11.83;;;7.80;;
76063;SDS011;64762;52.006;8.424;2023-06-26T06:37:02;14.07;;;8.27;;
76063;SDS011;64762;52.006;8.424;2023-06-26T06:39:28;14.38;;;8.57;;
76063;SDS011;64762;52.006;8.424;2023-06-26T06:41:53;16.27;;;8.60;;
76063;SDS011;64762;52.006;8.424;2023-06-26T06:44:19;15.03;;;8.77;;
76063;SDS011;64762;52.006;8.424;2023-06-26T06:46:45;15.02;;;8.55;;
76063;SDS011;64762;52.006;8.424;2023-06-26T06:49:10;14.73;;;9.73;;
76063;SDS011;64762;52.006;8.424;2023-06-26T06:51:35;17.33;;;10.30;;
76063;SDS011;64762;52.006;8.424;2023-06-26T06:54:01;15.03;;;8.97;;
76063;SDS011;64762;52.006;8.424;2023-06-26T06:56:27;16.70;;;8.50;;
76063;SDS011;64762;52.006;8.424;2023-06-26T06:58:53;14.18;;;9.02;;
76063;SDS011;64762;52.006;8.424;2023-06-26T07:01:18;18.13;;;10.53;;
76063;SDS011;64762;52.006;8.424;2023-06-26T07:03:43;19.33;;;10.17;;
76063;SDS011;64762;52.006;8.424;2023-06-26T07:06:09;15.53;;;10.17;;
76063;SDS011;64762;52.006;8.424;2023-06-26T07:08:34;20.20;;;10.23;;
76063;SDS011;64762;52.006;8.424;2023-06-26T07:11:00;14.43;;;9.55;;
76063;SDS011;64762;52.006;8.424;2023-06-26T07:13:26;17.67;;;10.65;;
76063;SDS011;64762;52.006;8.424;2023-06-26T07:15:51;14.10;;;10.13;;
76063;SDS011;64762;52.006;8.424;2023-06-26T07:18:17;14.70;;;9.87;;
76063;SDS011;64762;52.006;8.424;2023-06-26T07:20:42;23.85;;;9.07;;
76063;SDS011;64762;52.006;8.424;2023-06-26T07:23:08;13.87;;;9.50;;
76063;SDS011;64762;52.006;8.424;2023-06-26T07:25:33;16.48;;;9.93;;
76063;SDS011;64762;52.006;8.424;2023-06-26T07:27:58;18.63;;;10.30;;
76063;SDS011;64762;52.006;8.424;2023-06-26T07:30:24;19.17;;;11.35;;
76063;SDS011;64762;52.006;8.424;2023-06-26T07:32:49;16.50;;;9.70;;
76063;SDS011;64762;52.006;8.424;2023-06-26T07:35:15;17.33;;;8.73;;
76063;SDS011;64762;52.006;8.424;2023-06-26T07:37:40;18.92;;;10.15;;
76063;SDS011;64762;52.006;8.424;2023-06-26T07:40:06;18.67;;;9.43;;
76063;SDS011;64762;52.006;8.424;2023-06-26T07:42:31;15.52;;;9.95;;
76063;SDS011;64762;52.006;8.424;2023-06-26T07:44:57;15.60;;;9.23;;
76063;SDS011;64762;52.006;8.424;2023-06-26T07:47:22;17.57;;;10.03;;
76063;SDS011;64762;52.006;8.424;2023-06-26T07:49:47;15.63;;;8.00;;
76063;SDS011;64762;52.006;8.424;2023-06-26T07:52:13;12.67;;;8.10;;
76063;SDS011;64762;52.006;8.424;2023-06-26T07:54:40;17.35;;;9.10;;
76063;SDS011;64762;52.006;8.424;2023-06-26T07:57:05;18.80;;;8.60;;
76063;SDS011;64762;52.006;8.424;2023-06-26T07:59:34;14.23;;;7.40;;
76063;SDS011;64762;52.006;8.424;2023-06-26T08:02:00;15.70;;;8.00;;
76063;SDS011;64762;52.006;8.424;2023-06-26T08:04:27;15.35;;;7.38;;
76063;SDS011;64762;52.006;8.424;2023-06-26T08:06:55;13.40;;;7.22;;
76063;SDS011;64762;52.006;8.424;2023-06-26T08:09:22;17.27;;;7.13;;
76063;SDS011;64762;52.006;8.424;2023-06-26T08:11:49;15.55;;;8.38;;
76063;SDS011;64762;52.006;8.424;2023-06-26T08:14:14;15.90;;;7.13;;
76063;SDS011;64762;52.006;8.424;2023-06-26T08:16:40;17.65;;;6.90;;
76063;SDS011;64762;52.006;8.424;2023-06-26T08:19:06;15.63;;;6.90;;
76063;SDS011;64762;52.006;8.424;2023-06-26T08:21:31;14.10;;;6.57;;
76063;SDS011;64762;52.006;8.424;2023-06-26T08:23:56;13.23;;;7.27;;
76063;SDS011;64762;52.006;8.424;2023-06-26T08:26:22;11.87;;;6.97;;
76063;SDS011;64762;52.006;8.424;2023-06-26T08:28:47;17.97;;;7.77;;
76063;SDS011;64762;52.006;8.424;2023-06-26T08:31:12;17.67;;;7.57;;
76063;SDS011;64762;52.006;8.424;2023-06-26T08:33:38;13.10;;;7.13;;
76063;SDS011;64762;52.006;8.424;2023-06-26T08:36:03;15.53;;;6.80;;
76063;SDS011;64762;52.006;8.424;2023-06-26T08:38:28;13.13;;;6.73;;
76063;SDS011;64762;52.006;8.424;2023-06-26T08:40:54;15.37;;;7.83;;
76063;SDS011;64762;52.006;8.424;2023-06-26T08:43:19;15.27;;;7.53;;
76063;SDS011;64762;52.006;8.424;2023-06-26T08:45:46;14.45;;;7.10;;
76063;SDS011;64762;52.006;8.424;2023-06-26T08:48:16;15.90;;;8.65;;
76063;SDS011;64762;52.006;8.424;2023-06-26T08:50:41;19.23;;;9.30;;
76063;SDS011;64762;52.006;8.424;2023-06-26T08:53:10;16.77;;;8.40;;
76063;SDS011;64762;52.006;8.424;2023-06-26T08:55:41;19.55;;;7.72;;
76063;SDS011;64762;52.006;8.424;2023-06-26T08:58:08;16.30;;;7.85;;
76063;SDS011;64762;52.006;8.424;2023-06-26T09:00:33;15.27;;;8.23;;
76063;SDS011;64762;52.006;8.424;2023-06-26T09:02:59;18.50;;;8.90;;
76063;SDS011;64762;52.006;8.424;2023-06-26T09:05:25;16.80;;;8.02;;
76063;SDS011;64762;52.006;8.424;2023-06-26T09:07:52;21.17;;;7.82;;
76063;SDS011;64762;52.006;8.424;2023-06-26T09:10:20;16.42;;;7.50;;
76063;SDS011;64762;52.006;8.424;2023-06-26T09:12:46;17.15;;;8.00;;
76063;SDS011;64762;52.006;8.424;2023-06-26T09:15:14;20.40;;;7.78;;
76063;SDS011;64762;52.006;8.424;2023-06-26T09:17:39;15.00;;;7.57;;
76063;SDS011;64762;52.006;8.424;2023-06-26T09:20:07;13.32;;;7.57;;
76063;SDS011;64762;52.006;8.424;2023-06-26T09:22:34;22.35;;;8.45;;
76063;SDS011;64762;52.006;8.424;2023-06-26T09:25:02;21.48;;;7.55;;
76063;SDS011;64762;52.006;8.424;2023-06-26T09:27:27;18.70;;;7.68;;
76063;SDS011;64762;52.006;8.424;2023-06-26T09:29:53;14.43;;;7.80;;
76063;SDS011;64762;52.006;8.424;2023-06-26T09:32:18;14.80;;;7.50;;
76063;SDS011;64762;52.006;8.424;2023-06-26T09:34:43;14.87;;;7.47;;
76063;SDS011;64762;52.006;8.424;2023-06-26T09:37:11;17.13;;;6.90;;
76063;SDS011;64762;52.006;8.424;2023-06-26T09:39:37;16.13;;;6.40;;
76063;SDS011;64762;52.006;8.424;2023-06-26T09:42:02;14.27;;;6.70;;
76063;SDS011;64762;52.006;8.424;2023-06-26T09:44:28;15.52;;;7.20;;
76063;SDS011;64762;52.006;8.424;2023-06-26T09:46:56;14.38;;;7.10;;
76063;SDS011;64762;52.006;8.424;2023-06-26T09:49:23;14.90;;;7.43;;
76063;SDS011;64762;52.006;8.424;2023-06-26T09:51:48;13.48;;;6.43;;
76063;SDS011;64762;52.006;8.424;2023-06-26T09:54:15;15.57;;;7.18;;
76063;SDS011;64762;52.006;8.424;2023-06-26T09:56:41;15.75;;;7.57;;
76063;SDS011;64762;52.006;8.424;2023-06-26T09:59:06;16.57;;;6.27;;
76063;SDS011;64762;52.006;8.424;2023-06-26T10:01:32;19.33;;;6.73;;
76063;SDS011;64762;52.006;8.424;2023-06-26T10:03:58;13.05;;;6.40;;
76063;SDS011;64762;52.006;8.424;2023-06-26T10:06:33;18.25;;;7.07;;
76063;SDS011;64762;52.006;8.424;2023-06-26T10:09:00;16.70;;;7.03;;
76063;SDS011;64762;52.006;8.424;2023-06-26T10:11:29;17.70;;;6.97;;
76063;SDS011;64762;52.006;8.424;2023-06-26T10:14:00;16.90;;;6.88;;
76063;SDS011;64762;52.006;8.424;2023-06-26T10:16:26;15.77;;;6.63;;
76063;SDS011;64762;52.006;8.424;2023-06-26T10:18:53;15.65;;;6.90;;
76063;SDS011;64762;52.006;8.424;2023-06-26T10:21:22;18.63;;;6.03;;
76063;SDS011;64762;52.006;8.424;2023-06-26T10:23:48;16.05;;;6.32;;
76063;SDS011;64762;52.006;8.424;2023-06-26T10:26:13;12.70;;;6.67;;
76063;SDS011;64762;52.006;8.424;2023-06-26T10:28:39;13.68;;;6.28;;
76063;SDS011;64762;52.006;8.424;2023-06-26T10:31:05;15.77;;;6.65;;
76063;SDS011;64762;52.006;8.424;2023-06-26T10:33:32;16.90;;;6.28;;
76063;SDS011;64762;52.006;8.424;2023-06-26T10:36:14;12.48;;;5.18;;
76063;SDS011;64762;52.006;8.424;2023-06-26T10:38:57;11.15;;;5.53;;
76063;SDS011;64762;52.006;8.424;2023-06-26T10:41:24;11.35;;;5.32;;
76063;SDS011;64762;52.006;8.424;2023-06-26T10:46:27;11.07;;;5.55;;
76063;SDS011;64762;52.006;8.424;2023-06-26T10:48:58;11.15;;;5.45;;
76063;SDS011;64762;52.006;8.424;2023-06-26T10:51:25;12.35;;;5.95;;
76063;SDS011;64762;52.006;8.424;2023-06-26T10:53:55;12.13;;;5.25;;
76063;SDS011;64762;52.006;8.424;2023-06-26T10:56:21;13.32;;;5.43;;
76063;SDS011;64762;52.006;8.424;2023-06-26T10:58:47;14.05;;;5.00;;
76063;SDS011;64762;52.006;8.424;2023-06-26T11:03:47;9.38;;;4.97;;
76063;SDS011;64762;52.006;8.424;2023-06-26T11:06:20;14.02;;;4.78;;
76063;SDS011;64762;52.006;8.424;2023-06-26T11:11:14;8.13;;;4.13;;
76063;SDS011;64762;52.006;8.424;2023-06-26T11:13:40;8.55;;;4.10;;
76063;SDS011;64762;52.006;8.424;2023-06-26T11:16:06;8.70;;;4.68;;
76063;SDS011;64762;52.006;8.424;2023-06-26T11:18:32;8.80;;;3.83;;
76063;SDS011;64762;52.006;8.424;2023-06-26T11:21:07;8.63;;;4.07;;
76063;SDS011;64762;52.006;8.424;2023-06-26T11:23:33;6.38;;;3.30;;
76063;SDS011;64762;52.006;8.424;2023-06-26T11:26:21;6.18;;;3.45;;
76063;SDS011;64762;52.006;8.424;2023-06-26T11:28:50;9.35;;;3.45;;
76063;SDS011;64762;52.006;8.424;2023-06-26T11:33:55;9.75;;;3.85;;
76063;SDS011;64762;52.006;8.424;2023-06-26T11:36:25;11.38;;;3.30;;
76063;SDS011;64762;52.006;8.424;2023-06-26T11:39:00;7.07;;;3.88;;
76063;SDS011;64762;52.006;8.424;2023-06-26T11:41:27;7.53;;;3.05;;
76063;SDS011;64762;52.006;8.424;2023-06-26T11:43:54;7.18;;;2.95;;
76063;SDS011;64762;52.006;8.424;2023-06-26T11:46:20;7.07;;;3.60;;
76063;SDS011;64762;52.006;8.424;2023-06-26T11:48:46;9.63;;;3.05;;
76063;SDS011;64762;52.006;8.424;2023-06-26T11:51:15;7.50;;;3.22;;
76063;SDS011;64762;52.006;8.424;2023-06-26T11:53:44;5.53;;;2.78;;
76063;SDS011;64762;52.006;8.424;2023-06-26T11:56:11;7.40;;;3.28;;
76063;SDS011;64762;52.006;8.424;2023-06-26T12:04:12;6.28;;;3.00;;
76063;SDS011;64762;52.006;8.424;2023-06-26T12:06:40;12.95;;;3.15;;
76063;SDS011;64762;52.006;8.424;2023-06-26T12:09:08;7.80;;;2.92;;
76063;SDS011;64762;52.006;8.424;2023-06-26T12:11:36;8.15;;;2.65;;
76063;SDS011;64762;52.006;8.424;2023-06-26T12:14:06;7.80;;;3.40;;
76063;SDS011;64762;52.006;8.424;2023-06-26T12:16:32;6.05;;;2.90;;
76063;SDS011;64762;52.006;8.424;2023-06-26T12:19:05;7.55;;;2.92;;
76063;SDS011;64762;52.006;8.424;2023-06-26T12:24:12;6.13;;;3.00;;
76063;SDS011;64762;52.006;8.424;2023-06-26T12:26:40;7.57;;;2.72;;
76063;SDS011;64762;52.006;8.424;2023-06-26T12:29:12;9.45;;;3.30;;
76063;SDS011;64762;52.006;8.424;2023-06-26T12:31:41;7.38;;;3.20;;
76063;SDS011;64762;52.006;8.424;2023-06-26T12:34:09;6.35;;;3.63;;
76063;SDS011;64762;52.006;8.424;2023-06-26T12:36:43;5.18;;;3.33;;
76063;SDS011;64762;52.006;8.424;2023-06-26T12:39:11;6.93;;;2.95;;
76063;SDS011;64762;52.006;8.424;2023-06-26T12:41:51;5.60;;;3.60;;
76063;SDS011;64762;52.006;8.424;2023-06-26T12:44:22;8.63;;;3.05;;
76063;SDS011;64762;52.006;8.424;2023-06-26T12:46:53;4.80;;;2.63;;
76063;SDS011;64762;52.006;8.424;2023-06-26T12:49:32;8.63;;;3.38;;
76063;SDS011;64762;52.006;8.424;2023-06-26T12:51:59;6.05;;;2.80;;
76063;SDS011;64762;52.006;8.424;2023-06-26T12:54:24;5.93;;;3.05;;
76063;SDS011;64762;52.006;8.424;2023-06-26T12:56:50;6.67;;;3.10;;
76063;SDS011;64762;52.006;8.424;2023-06-26T12:59:16;10.98;;;3.40;;
76063;SDS011;64762;52.006;8.424;2023-06-26T13:01:41;7.37;;;3.17;;
76063;SDS011;64762;52.006;8.424;2023-06-26T13:04:06;12.37;;;3.30;;
76063;SDS011;64762;52.006;8.424;2023-06-26T13:06:33;6.15;;;3.20;;
76063;SDS011;64762;52.006;8.424;2023-06-26T13:08:58;6.20;;;3.10;;
76063;SDS011;64762;52.006;8.424;2023-06-26T13:11:23;6.93;;;2.80;;
76063;SDS011;64762;52.006;8.424;2023-06-26T13:13:49;6.93;;;3.27;;
76063;SDS011;64762;52.006;8.424;2023-06-26T13:16:14;9.70;;;3.10;;
76063;SDS011;64762;52.006;8.424;2023-06-26T13:18:39;7.30;;;3.33;;
76063;SDS011;64762;52.006;8.424;2023-06-26T13:21:05;6.03;;;3.13;;
76063;SDS011;64762;52.006;8.424;2023-06-26T13:23:30;7.30;;;3.10;;
76063;SDS011;64762;52.006;8.424;2023-06-26T13:25:55;7.00;;;3.30;;
76063;SDS011;64762;52.006;8.424;2023-06-26T13:28:21;7.33;;;3.50;;
76063;SDS011;64762;52.006;8.424;2023-06-26T13:30:46;7.87;;;2.80;;
76063;SDS011;64762;52.006;8.424;2023-06-26T13:33:11;7.17;;;2.77;;
76063;SDS011;64762;52.006;8.424;2023-06-26T13:35:36;8.90;;;3.30;;
76063;SDS011;64762;52.006;8.424;2023-06-26T13:38:02;9.03;;;3.17;;
76063;SDS011;64762;52.006;8.424;2023-06-26T13:40:27;7.30;;;3.60;;
76063;SDS011;64762;52.006;8.424;2023-06-26T13:42:53;9.00;;;3.30;;
76063;SDS011;64762;52.006;8.424;2023-06-26T13:45:18;5.63;;;3.50;;
76063;SDS011;64762;52.006;8.424;2023-06-26T13:47:43;7.47;;;3.33;;
76063;SDS011;64762;52.006;8.424;2023-06-26T13:50:09;7.17;;;3.10;;
76063;SDS011;64762;52.006;8.424;2023-06-26T13:52:34;7.03;;;2.92;;
76063;SDS011;64762;52.006;8.424;2023-06-26T13:55:00;6.65;;;2.92;;
76063;SDS011;64762;52.006;8.424;2023-06-26T13:57:25;7.70;;;3.00;;
76063;SDS011;64762;52.006;8.424;2023-06-26T13:59:52;11.48;;;3.10;;
76063;SDS011;64762;52.006;8.424;2023-06-26T14:02:18;8.02;;;3.20;;
76063;SDS011;64762;52.006;8.424;2023-06-26T14:04:43;10.37;;;3.33;;
76063;SDS011;64762;52.006;8.424;2023-06-26T14:07:08;7.70;;;3.13;;
76063;SDS011;64762;52.006;8.424;2023-06-26T14:09:34;7.13;;;2.75;;
76063;SDS011;64762;52.006;8.424;2023-06-26T14:11:59;5.23;;;2.70;;
76063;SDS011;64762;52.006;8.424;2023-06-26T14:14:24;7.70;;;2.90;;
76063;SDS011;64762;52.006;8.424;2023-06-26T14:16:50;10.47;;;3.00;;
76063;SDS011;64762;52.006;8.424;2023-06-26T14:19:15;9.53;;;2.93;;
76063;SDS011;64762;52.006;8.424;2023-06-26T14:21:42;7.43;;;2.40;;
76063;SDS011;64762;52.006;8.424;2023-06-26T14:24:09;10.10;;;2.70;;
76063;SDS011;64762;52.006;8.424;2023-06-26T14:26:34;4.97;;;2.30;;
76063;SDS011;64762;52.006;8.424;2023-06-26T14:29:01;6.22;;;2.47;;
76063;SDS011;64762;52.006;8.424;2023-06-26T14:31:28;5.53;;;2.30;;
76063;SDS011;64762;52.006;8.424;2023-06-26T14:33:53;8.05;;;2.28;;
76063;SDS011;64762;52.006;8.424;2023-06-26T14:36:19;8.60;;;2.20;;
76063;SDS011;64762;52.006;8.424;2023-06-26T14:38:44;9.20;;;2.20;;
76063;SDS011;64762;52.006;8.424;2023-06-26T14:41:10;6.22;;;2.40;;
76063;SDS011;64762;52.006;8.424;2023-06-26T14:43:36;5.57;;;2.35;;
76063;SDS011;64762;52.006;8.424;2023-06-26T14:46:01;5.60;;;2.30;;
76063;SDS011;64762;52.006;8.424;2023-06-26T14:48:26;8.07;;;2.40;;
76063;SDS011;64762;52.006;8.424;2023-06-26T14:50:52;4.10;;;1.80;;
76063;SDS011;64762;52.006;8.424;2023-06-26T14:53:17;5.47;;;2.37;;
76063;SDS011;64762;52.006;8.424;2023-06-26T14:55:42;4.45;;;1.95;;
76063;SDS011;64762;52.006;8.424;2023-06-26T14:58:08;5.43;;;2.05;;
76063;SDS011;64762;52.006;8.424;2023-06-26T15:00:33;4.73;;;2.00;;
76063;SDS011;64762;52.006;8.424;2023-06-26T15:02:58;7.87;;;2.40;;
76063;SDS011;64762;52.006;8.424;2023-06-26T15:05:24;4.93;;;1.73;;